createdAt,value
2023-04-12T00:01:17.984Z,9.20
2023-04-12T00:03:54.745Z,7.60
2023-04-12T00:06:32.641Z,11.60
2023-04-12T00:09:05.209Z,9.90
2023-04-12T00:11:38.702Z,8.90
2023-04-12T00:14:13.367Z,9.20
2023-04-12T00:16:50.467Z,9.80
2023-04-12T00:19:25.927Z,7.50
2023-04-12T00:21:58.074Z,8.30
2023-04-12T00:24:30.018Z,13.40
2023-04-12T00:27:02.747Z,9.00
2023-04-12T00:29:35.086Z,7.80
2023-04-12T00:32:08.640Z,10.90
2023-04-12T00:34:43.051Z,7.70
2023-04-12T00:37:15.239Z,6.50
2023-04-12T00:39:47.269Z,11.40
2023-04-12T00:42:21.998Z,7.90
2023-04-12T00:44:54.027Z,6.90
2023-04-12T00:47:26.625Z,23.10
2023-04-12T00:50:00.275Z,10.60
2023-04-12T00:52:34.510Z,8.30
2023-04-12T00:55:09.835Z,7.60
2023-04-12T00:57:42.725Z,8.70
2023-04-12T01:00:17.193Z,7.00
2023-04-12T01:02:50.949Z,12.40
2023-04-12T01:05:27.167Z,9.70
2023-04-12T01:08:12.549Z,10.90
2023-04-12T01:10:53.824Z,9.60
2023-04-12T01:13:30.853Z,10.60
2023-04-12T01:16:09.138Z,8.70
2023-04-12T01:18:52.129Z,10.80
2023-04-12T01:21:35.725Z,9.70
2023-04-12T01:24:26.680Z,7.90
2023-04-12T01:27:02.767Z,8.10
2023-04-12T01:29:35.555Z,7.50
2023-04-12T01:32:11.661Z,9.20
2023-04-12T01:34:45.730Z,12.20
2023-04-12T01:37:19.969Z,12.20
2023-04-12T01:39:52.542Z,9.00
2023-04-12T01:42:24.674Z,9.10
2023-04-12T01:44:56.725Z,11.10
2023-04-12T01:47:29.169Z,12.00
2023-04-12T01:50:11.256Z,9.80
2023-04-12T01:52:49.650Z,8.50
2023-04-12T01:55:25.493Z,15.40
2023-04-12T01:58:00.489Z,11.00
2023-04-12T02:00:35.677Z,25.50
2023-04-12T02:03:12.789Z,13.70
2023-04-12T02:05:48.175Z,14.70
2023-04-12T02:08:27.128Z,11.60
2023-04-12T02:10:59.196Z,11.70
2023-04-12T02:13:33.650Z,10.20
2023-04-12T02:16:08.037Z,10.20
2023-04-12T02:18:41.610Z,9.10
2023-04-12T02:21:14.480Z,9.10
2023-04-12T02:23:47.120Z,15.90
2023-04-12T02:26:19.306Z,9.00
2023-04-12T02:28:52.692Z,9.10
2023-04-12T02:31:28.166Z,13.10
2023-04-12T02:34:02.038Z,11.40
2023-04-12T02:36:35.313Z,11.50
2023-04-12T02:39:07.880Z,16.40
2023-04-12T02:41:40.320Z,11.50
2023-04-12T02:44:16.297Z,10.60
2023-04-12T02:46:53.031Z,12.90
2023-04-12T02:49:25.428Z,14.90
2023-04-12T02:51:59.154Z,12.60
2023-04-12T02:54:35.644Z,13.20
2023-04-12T02:57:08.691Z,13.10
2023-04-12T02:59:44.511Z,12.50
2023-04-12T03:02:29.954Z,12.00
2023-04-12T03:05:08.950Z,12.90
2023-04-12T03:07:45.008Z,13.70
2023-04-12T03:10:17.432Z,10.50
2023-04-12T03:12:54.977Z,11.00
2023-04-12T03:15:28.375Z,15.30
2023-04-12T03:18:01.558Z,18.90
2023-04-12T03:20:36.140Z,12.00
2023-04-12T03:23:11.511Z,19.10
2023-04-12T03:25:48.399Z,13.40
2023-04-12T03:28:36.606Z,16.30
2023-04-12T03:31:12.779Z,14.50
2023-04-12T03:33:50.415Z,14.20
2023-04-12T03:36:31.419Z,13.50
2023-04-12T03:39:09.946Z,11.10
2023-04-12T03:41:44.087Z,17.00
2023-04-12T03:44:16.810Z,12.00
2023-04-12T03:46:49.779Z,15.30
2023-04-12T03:49:22.091Z,13.10
2023-04-12T03:51:54.140Z,14.80
2023-04-12T03:54:26.509Z,12.10
2023-04-12T03:57:03.144Z,11.30
2023-04-12T03:59:48.216Z,16.60
2023-04-12T04:02:20.817Z,15.20
2023-04-12T04:04:53.736Z,20.00
2023-04-12T04:07:31.784Z,79.00
2023-04-12T04:10:05.734Z,70.20
2023-04-12T04:12:40.007Z,38.80
2023-04-12T04:15:17.357Z,42.00
2023-04-12T04:17:51.876Z,25.20
2023-04-12T04:20:25.974Z,34.00
2023-04-12T04:23:01.056Z,57.80
2023-04-12T04:25:33.774Z,35.50
2023-04-12T04:28:09.891Z,22.80
2023-04-12T04:30:46.285Z,94.20
2023-04-12T04:33:21.187Z,21.90
2023-04-12T04:35:54.669Z,25.60
2023-04-12T04:38:38.864Z,25.00
2023-04-12T04:41:22.850Z,21.90
2023-04-12T04:44:09.671Z,16.90
2023-04-12T04:46:44.396Z,16.20
2023-04-12T04:49:16.691Z,15.90
2023-04-12T04:51:49.743Z,13.70
2023-04-12T04:54:29.993Z,13.80
2023-04-12T04:57:03.118Z,16.20
2023-04-12T04:59:35.514Z,22.80
2023-04-12T05:02:18.338Z,15.10
2023-04-12T05:04:53.115Z,14.10
2023-04-12T05:07:27.405Z,45.90
2023-04-12T05:09:59.590Z,165.40
2023-04-12T05:12:31.795Z,253.60
2023-04-12T05:15:11.583Z,142.60
2023-04-12T05:17:47.227Z,96.10
2023-04-12T05:20:19.488Z,118.80
2023-04-12T05:22:54.733Z,34.10
2023-04-12T05:25:27.023Z,72.30
2023-04-12T05:28:11.607Z,49.00
2023-04-12T05:30:43.792Z,37.50
2023-04-12T05:33:16.772Z,29.50
2023-04-12T05:35:51.182Z,16.90
2023-04-12T05:38:24.045Z,19.60
2023-04-12T05:40:59.151Z,32.20
2023-04-12T05:43:33.033Z,34.00
2023-04-12T05:46:05.745Z,39.90
2023-04-12T05:48:38.192Z,31.10
2023-04-12T05:51:12.735Z,33.90
2023-04-12T05:53:44.990Z,49.10
2023-04-12T05:56:18.109Z,36.60
2023-04-12T05:58:50.339Z,19.80
2023-04-12T06:01:22.746Z,32.30
2023-04-12T06:03:55.076Z,38.70
2023-04-12T06:06:30.363Z,37.90
2023-04-12T06:09:05.349Z,38.10
2023-04-12T06:11:39.314Z,20.80
2023-04-12T06:14:12.130Z,16.30
2023-04-12T06:16:50.517Z,15.80
2023-04-12T06:19:22.616Z,23.80
2023-04-12T06:21:55.903Z,19.30
2023-04-12T06:24:28.159Z,15.10
2023-04-12T06:27:00.256Z,24.00
2023-04-12T06:29:35.336Z,17.90
2023-04-12T06:32:10.430Z,37.40
2023-04-12T06:34:42.794Z,18.00
2023-04-12T06:37:18.672Z,15.60
2023-04-12T06:39:51.310Z,12.60
2023-04-12T06:42:26.266Z,18.80
2023-04-12T06:45:01.543Z,14.30
2023-04-12T06:47:35.086Z,18.10
2023-04-12T06:50:08.706Z,17.40
2023-04-12T06:52:40.884Z,17.30
2023-04-12T06:55:13.255Z,14.20
2023-04-12T06:57:46.267Z,14.30
2023-04-12T07:00:19.383Z,18.40
2023-04-12T07:02:51.795Z,14.80
2023-04-12T07:05:24.645Z,13.60
2023-04-12T07:07:56.804Z,14.90
2023-04-12T07:10:32.857Z,12.80
2023-04-12T07:13:07.255Z,14.70
2023-04-12T07:15:39.608Z,14.20
2023-04-12T07:18:11.818Z,13.70
2023-04-12T07:20:44.592Z,18.40
2023-04-12T07:23:16.649Z,26.30
2023-04-12T07:25:48.730Z,15.80
2023-04-12T07:28:21.607Z,23.90
2023-04-12T07:30:56.752Z,20.60
2023-04-12T07:33:29.104Z,16.10
2023-04-12T07:36:03.622Z,16.50
2023-04-12T07:38:35.887Z,16.20
2023-04-12T07:41:08.370Z,14.00
2023-04-12T07:43:40.446Z,11.80
2023-04-12T07:46:12.600Z,12.90
2023-04-12T07:48:46.400Z,15.40
2023-04-12T07:51:18.604Z,19.00
2023-04-12T07:53:53.727Z,14.30
2023-04-12T07:56:27.481Z,12.10
2023-04-12T07:59:02.305Z,10.70
2023-04-12T08:01:34.579Z,11.10
2023-04-12T08:04:06.682Z,9.80
2023-04-12T08:06:38.973Z,10.70
2023-04-12T08:09:14.440Z,13.40
2023-04-12T08:11:47.413Z,11.00
2023-04-12T08:14:19.689Z,12.10
2023-04-12T08:16:51.828Z,11.80
2023-04-12T08:19:24.060Z,12.80
2023-04-12T08:21:56.603Z,14.10
2023-04-12T08:24:28.728Z,10.00
2023-04-12T08:27:04.349Z,10.40
2023-04-12T08:29:36.567Z,9.30
2023-04-12T08:32:10.481Z,11.70
2023-04-12T08:34:44.656Z,9.20
2023-04-12T08:37:18.368Z,9.70
2023-04-12T08:39:50.457Z,13.80
2023-04-12T08:42:26.004Z,7.80
2023-04-12T08:44:58.526Z,14.30
2023-04-12T08:47:31.486Z,18.40
2023-04-12T08:50:09.511Z,13.30
2023-04-12T08:52:43.987Z,18.40
2023-04-12T08:55:16.041Z,12.00
2023-04-12T08:57:49.281Z,7.90
2023-04-12T09:00:23.285Z,11.70
2023-04-12T09:02:55.976Z,10.70
2023-04-12T09:05:32.848Z,9.00
2023-04-12T09:08:05.401Z,8.10
2023-04-12T09:10:39.294Z,8.30
2023-04-12T09:13:11.862Z,6.80
2023-04-12T09:15:52.464Z,8.10
2023-04-12T09:18:24.671Z,7.00
2023-04-12T09:21:09.282Z,6.40
2023-04-12T09:23:41.428Z,7.20
2023-04-12T09:26:30.330Z,7.50
2023-04-12T09:29:02.645Z,19.40
2023-04-12T09:31:37.256Z,14.90
2023-04-12T09:34:11.066Z,10.10
2023-04-12T09:36:44.031Z,7.20
2023-04-12T09:39:16.849Z,6.60
2023-04-12T09:41:48.996Z,6.60
2023-04-12T09:44:32.100Z,5.90
2023-04-12T09:47:05.851Z,6.30
2023-04-12T09:49:43.194Z,6.90
2023-04-12T09:52:16.342Z,6.20
2023-04-12T09:54:49.544Z,8.10
2023-04-12T09:57:25.067Z,10.60
2023-04-12T10:00:05.556Z,15.00
2023-04-12T10:02:47.419Z,8.00
2023-04-12T10:05:26.375Z,5.50
2023-04-12T10:07:59.421Z,8.70
2023-04-12T10:10:35.238Z,5.20
2023-04-12T10:13:11.065Z,4.20
2023-04-12T10:15:46.674Z,4.50
2023-04-12T10:18:20.694Z,4.40
2023-04-12T10:20:53.424Z,4.50
2023-04-12T10:23:26.989Z,4.90
2023-04-12T10:26:00.098Z,4.10
2023-04-12T10:28:33.215Z,5.20
2023-04-12T10:31:31.419Z,39.60
2023-04-12T10:34:07.048Z,9.30
2023-04-12T10:36:56.997Z,9.80
2023-04-12T10:39:41.085Z,21.70
2023-04-12T10:42:23.202Z,10.50
2023-04-12T10:44:58.111Z,8.60
2023-04-12T10:48:03.940Z,6.20
2023-04-12T10:50:36.420Z,3.90
2023-04-12T10:53:26.314Z,7.50
2023-04-12T10:55:58.573Z,5.00
2023-04-12T10:58:59.014Z,5.40
2023-04-12T11:01:36.742Z,5.80
2023-04-12T11:04:14.055Z,4.20
2023-04-12T11:07:02.999Z,9.00
2023-04-12T11:09:45.900Z,15.10
2023-04-12T11:12:30.307Z,7.30
2023-04-12T11:15:06.367Z,9.40
2023-04-12T11:17:58.241Z,6.50
2023-04-12T11:20:30.909Z,4.40
2023-04-12T11:23:11.248Z,3.90
2023-04-12T11:25:45.182Z,4.10
2023-04-12T11:28:28.862Z,3.80
2023-04-12T11:31:04.305Z,3.40
2023-04-12T11:33:41.432Z,5.00
2023-04-12T11:36:15.127Z,3.60
2023-04-12T11:38:50.413Z,3.30
2023-04-12T11:41:22.701Z,3.00
2023-04-12T11:43:55.420Z,3.80
2023-04-12T11:46:35.721Z,3.00
2023-04-12T11:49:10.912Z,2.40
2023-04-12T11:51:43.599Z,4.90
2023-04-12T11:54:16.831Z,4.10
2023-04-12T11:56:50.379Z,5.30
2023-04-12T11:59:22.737Z,5.00
2023-04-12T12:01:55.360Z,4.20
2023-04-12T12:04:29.108Z,4.20
2023-04-12T12:07:04.981Z,5.00
2023-04-12T12:09:40.300Z,5.00
2023-04-12T12:12:13.905Z,5.20
2023-04-12T12:14:52.156Z,10.60
2023-04-12T12:17:24.467Z,21.10
2023-04-12T12:20:01.549Z,55.90
2023-04-12T12:22:34.020Z,19.30
2023-04-12T12:25:07.045Z,6.60
2023-04-12T12:27:40.894Z,5.90
2023-04-12T12:30:16.991Z,5.50
2023-04-12T12:32:53.107Z,3.90
2023-04-12T12:35:28.894Z,4.00
2023-04-12T12:38:00.984Z,3.60
2023-04-12T12:40:36.600Z,3.90
2023-04-12T12:43:09.064Z,4.80
2023-04-12T12:45:44.742Z,4.40
2023-04-12T12:48:19.555Z,2.70
2023-04-12T12:50:51.837Z,3.00
2023-04-12T12:53:24.607Z,2.70
2023-04-12T12:55:57.747Z,2.80
2023-04-12T12:58:32.152Z,2.50
2023-04-12T13:01:04.393Z,2.40
2023-04-12T13:03:39.043Z,2.60
2023-04-12T13:06:11.965Z,2.60
2023-04-12T13:08:44.128Z,2.80
2023-04-12T13:11:17.913Z,2.50
2023-04-12T13:13:50.654Z,2.20
2023-04-12T13:16:24.594Z,2.10
2023-04-12T13:18:58.545Z,2.40
2023-04-12T13:21:31.715Z,2.60
2023-04-12T13:24:03.788Z,2.60
2023-04-12T13:26:36.149Z,2.80
2023-04-12T13:29:08.239Z,3.20
2023-04-12T13:31:40.368Z,2.60
2023-04-12T13:34:12.714Z,2.30
2023-04-12T13:36:44.895Z,2.40
2023-04-12T13:39:17.359Z,2.40
2023-04-12T13:41:51.776Z,2.50
2023-04-12T13:44:23.934Z,2.90
2023-04-12T13:46:57.093Z,2.80
2023-04-12T13:49:29.540Z,2.70
2023-04-12T13:52:03.154Z,2.60
2023-04-12T13:54:36.047Z,2.30
2023-04-12T13:57:08.600Z,2.40
2023-04-12T13:59:41.138Z,2.60
2023-04-12T14:02:13.266Z,2.60
2023-04-12T14:04:55.213Z,2.80
2023-04-12T14:07:29.530Z,2.40
2023-04-12T14:10:02.019Z,2.60
2023-04-12T14:12:34.185Z,2.80
2023-04-12T14:15:08.055Z,2.80
2023-04-12T14:17:40.642Z,3.00
2023-04-12T14:20:14.065Z,2.90
2023-04-12T14:22:46.183Z,3.00
2023-04-12T14:25:18.353Z,3.70
2023-04-12T14:27:50.609Z,4.10
2023-04-12T14:30:22.850Z,3.40
2023-04-12T14:32:55.133Z,4.00
2023-04-12T14:35:27.386Z,3.20
2023-04-12T14:37:59.403Z,3.30
2023-04-12T14:40:31.706Z,3.70
2023-04-12T14:43:04.032Z,3.80
2023-04-12T14:45:38.146Z,3.70
2023-04-12T14:48:10.269Z,3.80
2023-04-12T14:50:42.565Z,3.00
2023-04-12T14:53:16.394Z,3.80
2023-04-12T14:55:49.081Z,3.30
2023-04-12T14:58:23.567Z,3.10
2023-04-12T15:00:55.572Z,3.00
2023-04-12T15:03:30.009Z,2.60
2023-04-12T15:06:04.911Z,2.70
2023-04-12T15:08:41.485Z,3.00
2023-04-12T15:11:14.463Z,3.20
2023-04-12T15:13:49.865Z,2.90
2023-04-12T15:16:24.541Z,2.50
2023-04-12T15:18:57.539Z,2.80
2023-04-12T15:21:31.357Z,2.90
2023-04-12T15:24:03.479Z,2.90
2023-04-12T15:26:37.123Z,2.90
2023-04-12T15:29:10.676Z,2.90
2023-04-12T15:31:42.876Z,2.60
2023-04-12T15:34:15.448Z,2.60
2023-04-12T15:36:47.713Z,3.00
2023-04-12T15:39:20.055Z,3.00
2023-04-12T15:41:52.410Z,3.50
2023-04-12T15:44:30.138Z,3.50
2023-04-12T15:47:11.116Z,3.10
2023-04-12T15:49:44.134Z,3.20
2023-04-12T15:52:16.822Z,4.10
2023-04-12T15:54:48.984Z,3.10
2023-04-12T15:57:24.375Z,4.60
2023-04-12T15:59:59.404Z,3.50
2023-04-12T16:02:31.478Z,3.70
2023-04-12T16:05:07.669Z,3.20
2023-04-12T16:07:40.794Z,3.40
2023-04-12T16:10:13.700Z,3.70
2023-04-12T16:12:49.621Z,3.00
2023-04-12T16:15:23.227Z,3.10
2023-04-12T16:17:56.329Z,3.40
2023-04-12T16:20:31.943Z,3.80
2023-04-12T16:23:05.439Z,3.00
2023-04-12T16:25:37.821Z,3.10
2023-04-12T16:28:12.853Z,4.10
2023-04-12T16:30:47.870Z,4.00
2023-04-12T16:33:20.121Z,3.40
2023-04-12T16:35:54.437Z,7.00
2023-04-12T16:38:26.571Z,4.50
2023-04-12T16:40:58.873Z,3.40
2023-04-12T16:43:31.129Z,3.50
2023-04-12T16:46:07.636Z,3.60
2023-04-12T16:48:43.049Z,3.10
2023-04-12T16:51:15.059Z,3.50
2023-04-12T16:53:47.627Z,3.70
2023-04-12T16:56:20.030Z,3.90
2023-04-12T16:58:52.193Z,3.60
2023-04-12T17:01:24.380Z,3.90
2023-04-12T17:03:57.220Z,3.80
2023-04-12T17:06:30.340Z,4.20
2023-04-12T17:09:03.651Z,3.70
2023-04-12T17:11:36.244Z,4.00
2023-04-12T17:14:09.323Z,3.90
2023-04-12T17:16:41.512Z,3.40
2023-04-12T17:19:13.657Z,4.00
2023-04-12T17:21:46.237Z,3.40
2023-04-12T17:24:18.637Z,3.90
2023-04-12T17:26:50.801Z,3.50
2023-04-12T17:29:23.970Z,3.80
2023-04-12T17:31:56.687Z,3.70
2023-04-12T17:34:30.056Z,4.30
2023-04-12T17:37:02.489Z,4.20
2023-04-12T17:39:34.500Z,4.10
2023-04-12T17:42:07.176Z,4.60
2023-04-12T17:44:39.257Z,4.90
2023-04-12T17:47:11.283Z,5.60
2023-04-12T17:49:43.959Z,4.90
2023-04-12T17:52:16.487Z,5.50
2023-04-12T17:54:48.899Z,5.90
2023-04-12T17:57:22.378Z,5.00
2023-04-12T17:59:54.816Z,6.30
2023-04-12T18:02:27.712Z,6.50
2023-04-12T18:05:01.018Z,7.20
2023-04-12T18:07:34.201Z,8.00
2023-04-12T18:10:07.792Z,8.80
2023-04-12T18:12:40.958Z,9.70
2023-04-12T18:15:13.964Z,11.10
2023-04-12T18:17:46.562Z,12.80
2023-04-12T18:20:19.391Z,14.90
2023-04-12T18:22:54.319Z,15.40
2023-04-12T18:25:27.105Z,14.70
2023-04-12T18:27:59.549Z,14.70
2023-04-12T18:30:32.563Z,15.10
2023-04-12T18:33:05.665Z,14.70
2023-04-12T18:35:38.702Z,17.30
2023-04-12T18:38:11.351Z,17.10
2023-04-12T18:40:52.679Z,16.40
2023-04-12T18:43:24.883Z,15.20
2023-04-12T18:45:57.879Z,17.80
2023-04-12T18:48:30.619Z,16.50
2023-04-12T18:51:02.853Z,17.10
2023-04-12T18:53:37.875Z,15.80
2023-04-12T18:56:14.387Z,16.20
2023-04-12T19:01:24.774Z,15.10
2023-04-12T19:04:04.378Z,15.70
2023-04-12T19:06:37.128Z,14.90
2023-04-12T19:09:09.617Z,19.60
2023-04-12T19:11:42.407Z,19.50
2023-04-12T19:14:14.959Z,23.80
2023-04-12T19:16:49.596Z,20.10
2023-04-12T19:19:22.282Z,22.40
2023-04-12T19:21:57.247Z,22.30
2023-04-12T19:24:29.441Z,21.70
2023-04-12T19:27:02.478Z,20.80
2023-04-12T19:29:34.747Z,21.50
2023-04-12T19:32:12.232Z,22.40
2023-04-12T19:34:45.425Z,25.40
2023-04-12T19:37:17.945Z,24.80
2023-04-12T19:39:51.645Z,26.60
2023-04-12T19:42:23.725Z,30.50
2023-04-12T19:44:58.365Z,30.30
2023-04-12T19:47:31.100Z,30.70
2023-04-12T19:50:04.449Z,29.70
2023-04-12T19:52:36.452Z,32.90
2023-04-12T19:55:13.579Z,35.80
2023-04-12T19:57:46.159Z,33.00
2023-04-12T20:00:20.866Z,33.30
2023-04-12T20:03:00.692Z,32.40
2023-04-12T20:05:33.367Z,32.90
2023-04-12T20:08:05.561Z,33.30
2023-04-12T20:10:37.680Z,31.50
2023-04-12T20:13:15.287Z,31.10
2023-04-12T20:15:47.565Z,32.90
2023-04-12T20:18:19.535Z,35.80
2023-04-12T20:20:53.251Z,39.70
2023-04-12T20:23:25.634Z,38.10
2023-04-12T20:25:57.529Z,36.10
2023-04-12T20:28:29.623Z,35.80
2023-04-12T20:31:01.846Z,34.90
2023-04-12T20:33:33.840Z,32.20
2023-04-12T20:36:06.227Z,33.10
2023-04-12T20:38:38.303Z,30.50
2023-04-12T20:41:10.942Z,31.30
2023-04-12T20:43:47.684Z,29.30
2023-04-12T20:46:25.705Z,29.30
2023-04-12T20:48:58.491Z,27.70
2023-04-12T20:51:30.769Z,26.90
2023-04-12T20:54:03.338Z,30.90
2023-04-12T20:56:36.291Z,28.70
2023-04-12T20:59:10.854Z,29.30
2023-04-12T21:01:46.949Z,29.90
2023-04-12T21:04:20.266Z,30.40
2023-04-12T21:06:55.823Z,32.30
2023-04-12T21:09:27.977Z,32.30
2023-04-12T21:12:02.785Z,33.60
2023-04-12T21:14:37.744Z,34.80
2023-04-12T21:17:10.007Z,33.30
2023-04-12T21:19:45.209Z,35.10
2023-04-12T21:22:17.372Z,35.40
2023-04-12T21:24:50.242Z,38.90
2023-04-12T21:27:25.246Z,34.90
2023-04-12T21:29:58.240Z,36.60
2023-04-12T21:32:32.546Z,39.10
2023-04-12T21:35:05.731Z,40.70
2023-04-12T21:37:38.952Z,38.60
2023-04-12T21:40:12.816Z,39.50
2023-04-12T21:42:45.415Z,40.40
2023-04-12T21:45:17.915Z,39.40
2023-04-12T21:47:52.410Z,39.50
2023-04-12T21:50:24.693Z,40.10
2023-04-12T21:52:57.533Z,42.10
2023-04-12T21:55:32.866Z,43.10
2023-04-12T21:58:05.376Z,40.50
2023-04-12T22:00:37.954Z,40.90
2023-04-12T22:03:10.327Z,40.30
2023-04-12T22:05:44.563Z,45.50
2023-04-12T22:08:20.777Z,42.00
2023-04-12T22:10:54.065Z,42.60
2023-04-12T22:13:29.252Z,41.00
2023-04-12T22:16:03.409Z,38.90
2023-04-12T22:18:35.795Z,40.80
2023-04-12T22:21:09.853Z,39.30
2023-04-12T22:23:42.087Z,39.20
2023-04-12T22:26:18.113Z,39.80
2023-04-12T22:28:52.822Z,40.10
2023-04-12T22:31:28.499Z,39.10
2023-04-12T22:34:01.640Z,39.00
2023-04-12T22:36:37.516Z,37.80
2023-04-12T22:39:10.649Z,35.70
2023-04-12T22:41:49.691Z,36.30
2023-04-12T22:44:22.179Z,35.70
2023-04-12T22:46:56.770Z,33.70
2023-04-12T22:49:30.843Z,36.50
2023-04-12T22:52:09.062Z,32.10
2023-04-12T22:54:42.557Z,36.60
2023-04-12T22:57:14.683Z,36.40
2023-04-12T22:59:46.780Z,36.40
2023-04-12T23:02:18.863Z,35.30
2023-04-12T23:04:52.410Z,36.50
2023-04-12T23:07:24.806Z,36.90
2023-04-12T23:09:56.901Z,36.20
2023-04-12T23:12:29.316Z,33.00
2023-04-12T23:15:02.302Z,32.60
2023-04-12T23:17:34.587Z,33.00
2023-04-12T23:20:10.136Z,32.40
2023-04-12T23:22:57.231Z,33.40
2023-04-12T23:25:39.626Z,33.30
2023-04-12T23:28:14.018Z,33.20
2023-04-12T23:30:50.382Z,33.80
2023-04-12T23:33:25.646Z,33.60
2023-04-12T23:35:58.745Z,35.90
2023-04-12T23:38:33.990Z,33.20
2023-04-12T23:41:11.662Z,32.50
2023-04-12T23:43:43.799Z,33.70
2023-04-12T23:46:16.202Z,33.80
2023-04-12T23:48:49.462Z,34.30
2023-04-12T23:51:22.045Z,33.30
2023-04-12T23:53:54.492Z,31.80
2023-04-12T23:56:28.108Z,32.40
2023-04-12T23:59:02.688Z,33.00
